Time;durP1;ratioP1;P1;durP2;ratioP2;P2;SDS_P1;SDS_P2;PMS_P1;PMS_P2;Temp;Humidity;BMP_temperature;BMP_pressure;BME280_temperature;BME280_humidity;BME280_pressure;Samples;Min_cycle;Max_cycle;Signal;HPM_P1;HPM_P2
2021/04/26 00:01:48;;;;;;;;;;;21.90;31.70;;;;;;1547396;74;733;-61
2021/04/26 00:03:50;;;;;;;;;;;21.90;31.70;;;;;;1578056;74;822;-62
2021/04/26 00:05:52;;;;;;;;;;;21.90;31.80;;;;;;1572547;75;769;-62
2021/04/26 00:07:54;;;;;;;;;;;22.00;31.80;;;;;;1564715;74;1939;-62
2021/04/26 00:09:56;;;;;;;;;;;22.00;31.80;;;;;;1577608;74;1153;-63
2021/04/26 00:11:58;;;;;;;;;;;22.00;31.80;;;;;;1558395;76;771;-62
2021/04/26 00:14:00;;;;;;;;;;;22.00;31.80;;;;;;1573802;74;721;-62
2021/04/26 00:16:02;;;;;;;;;;;22.10;31.80;;;;;;1561526;74;793;-62
2021/04/26 00:18:04;;;;;;;;;;;22.00;31.70;;;;;;1570824;74;1140;-62
2021/04/26 00:20:07;;;;;;;;;;;22.00;31.80;;;;;;1563035;74;801;-62
2021/04/26 00:22:08;;;;;;;;;;;22.00;31.80;;;;;;1572855;74;710;-62
2021/04/26 00:24:10;;;;;;;;;;;22.00;31.80;;;;;;1545794;74;780;-63
2021/04/26 00:26:12;;;;;;;;;;;22.00;31.80;;;;;;1564961;74;714;-59
2021/04/26 00:28:14;;;;;;;;;;;22.00;31.90;;;;;;1553273;74;1961;-63
2021/04/26 00:30:17;;;;;;;;;;;22.10;31.90;;;;;;1564862;74;749;-62
2021/04/26 00:32:19;;;;;;;;;;;22.00;31.80;;;;;;1563438;74;862;-62
2021/04/26 00:34:21;;;;;;;;;;;22.00;31.90;;;;;;1561433;74;720;-62
2021/04/26 00:36:23;;;;;;;;;;;22.10;32.00;;;;;;1566930;74;766;-62
2021/04/26 00:38:24;;;;;;;;;;;22.00;31.80;;;;;;1556968;74;1138;-62
2021/04/26 00:40:26;;;;;;;;;;;22.00;31.80;;;;;;1568247;74;796;-63
2021/04/26 00:42:28;;;;;;;;;;;22.00;31.80;;;;;;1560960;74;850;-64
2021/04/26 00:44:30;;;;;;;;;;;22.00;31.80;;;;;;1550095;74;786;-61
2021/04/26 00:46:32;;;;;;;;;;;22.10;31.90;;;;;;1563133;74;744;-61
2021/04/26 00:48:34;;;;;;;;;;;22.10;32.00;;;;;;1563571;74;2007;-61
2021/04/26 00:50:36;;;;;;;;;;;22.10;32.00;;;;;;1562288;74;779;-62
2021/04/26 00:52:38;;;;;;;;;;;22.00;32.00;;;;;;1554987;74;791;-63
2021/04/26 00:54:40;;;;;;;;;;;22.10;32.00;;;;;;1546859;74;738;-62
2021/04/26 00:56:41;;;;;;;;;;;22.10;31.90;;;;;;1546144;74;764;-63
2021/04/26 00:58:43;;;;;;;;;;;22.10;32.00;;;;;;1544335;74;1148;-63
2021/04/26 01:00:45;;;;;;;;;;;22.00;31.90;;;;;;1556676;74;750;-62
2021/04/26 01:02:47;;;;;;;;;;;22.00;32.00;;;;;;1567208;74;829;-62
2021/04/26 01:04:49;;;;;;;;;;;22.00;32.10;;;;;;1558708;74;790;-62
2021/04/26 01:06:51;;;;;;;;;;;22.10;32.10;;;;;;1567312;74;946;-62
2021/04/26 01:08:53;;;;;;;;;;;22.00;32.00;;;;;;1555133;74;1129;-63
2021/04/26 01:10:55;;;;;;;;;;;22.00;32.00;;;;;;1558582;74;672;-63
2021/04/26 01:12:58;;;;;;;;;;;22.00;32.10;;;;;;1567329;74;650;-63
2021/04/26 01:15:05;;;;;;;;;;;22.00;32.10;;;;;;1557434;74;803;-62
2021/04/26 01:17:08;;;;;;;;;;;22.00;32.10;;;;;;1572130;74;866;-63
2021/04/26 01:19:12;;;;;;;;;;;22.00;32.10;;;;;;1573870;74;1808;-62
2021/04/26 01:21:21;;;;;;;;;;;22.00;32.10;;;;;;1575963;74;735;-62
2021/04/26 01:23:25;;;;;;;;;;;22.00;32.20;;;;;;1558709;74;740;-63
2021/04/26 01:25:27;;;;;;;;;;;22.00;32.20;;;;;;1557000;74;801;-62
2021/04/26 01:27:36;;;;;;;;;;;22.00;32.30;;;;;;1558692;74;1938;-62
2021/04/26 01:29:40;;;;;;;;;;;22.00;32.30;;;;;;1559775;74;1142;-63
2021/04/26 01:31:49;;;;;;;;;;;22.10;32.40;;;;;;1571882;74;2358;-62
2021/04/26 01:33:51;;;;;;;;;;;22.10;32.40;;;;;;1563954;74;1992;-62
2021/04/26 01:35:53;;;;;;;;;;;22.00;32.30;;;;;;1564350;74;814;-62
2021/04/26 01:37:56;;;;;;;;;;;22.10;32.40;;;;;;1567036;74;736;-62
2021/04/26 01:39:58;;;;;;;;;;;22.10;32.40;;;;;;1586862;71;2067;-68
2021/04/26 01:42:00;;;;;;;;;;;22.10;32.30;;;;;;1590180;72;815;-67
2021/04/26 01:44:02;;;;;;;;;;;22.10;32.40;;;;;;1586561;72;746;-67
2021/04/26 01:46:04;;;;;;;;;;;22.20;32.30;;;;;;1597656;73;941;-68
2021/04/26 01:48:06;;;;;;;;;;;22.10;32.30;;;;;;1596881;73;1933;-67
2021/04/26 01:50:10;;;;;;;;;;;22.10;32.30;;;;;;1594721;73;1180;-68
2021/04/26 01:52:11;;;;;;;;;;;22.10;32.30;;;;;;1590199;72;754;-68
2021/04/26 01:54:14;;;;;;;;;;;22.20;32.20;;;;;;1586076;73;710;-69
2021/04/26 01:56:15;;;;;;;;;;;22.20;32.20;;;;;;1578403;73;908;-65
2021/04/26 01:58:17;;;;;;;;;;;22.10;32.30;;;;;;1589260;73;674;-67
2021/04/26 02:00:21;;;;;;;;;;;22.20;32.20;;;;;;1584226;73;1122;-68
2021/04/26 02:02:23;;;;;;;;;;;22.20;32.20;;;;;;1590130;73;1099;-69
2021/04/26 02:04:28;;;;;;;;;;;22.10;32.20;;;;;;1598941;73;746;-67
2021/04/26 02:06:30;;;;;;;;;;;22.10;32.20;;;;;;1596211;73;812;-67
2021/04/26 02:08:32;;;;;;;;;;;22.20;32.10;;;;;;1596545;73;1945;-67
2021/04/26 02:10:34;;;;;;;;;;;22.20;32.20;;;;;;1585937;73;705;-68
2021/04/26 02:12:36;;;;;;;;;;;22.10;32.10;;;;;;1582414;73;873;-66
2021/04/26 02:14:40;;;;;;;;;;;22.10;32.20;;;;;;1595687;73;758;-66
2021/04/26 02:16:42;;;;;;;;;;;22.20;32.20;;;;;;1597410;73;1111;-66
2021/04/26 02:18:44;;;;;;;;;;;22.10;32.20;;;;;;1587022;73;1141;-67
2021/04/26 02:20:46;;;;;;;;;;;22.10;32.30;;;;;;1594974;72;791;-65
2021/04/26 02:22:49;;;;;;;;;;;22.10;32.30;;;;;;1587166;73;720;-65
2021/04/26 02:24:51;;;;;;;;;;;22.10;32.20;;;;;;1583377;72;807;-66
2021/04/26 02:26:53;;;;;;;;;;;22.20;32.20;;;;;;1592133;73;881;-67
2021/04/26 02:28:54;;;;;;;;;;;22.10;32.30;;;;;;1593591;73;1945;-65
2021/04/26 02:30:57;;;;;;;;;;;22.20;32.30;;;;;;1601619;73;771;-66
2021/04/26 02:33:00;;;;;;;;;;;22.10;32.40;;;;;;1602191;73;733;-66
2021/04/26 02:35:02;;;;;;;;;;;21.90;32.80;;;;;;1585810;73;722;-66
2021/04/26 02:37:09;;;;;;;;;;;22.00;33.00;;;;;;1609530;73;807;-67
2021/04/26 02:39:11;;;;;;;;;;;22.00;33.20;;;;;;1594618;73;1184;-66
2021/04/26 02:41:16;;;;;;;;;;;21.90;33.50;;;;;;1601519;72;678;-66
2021/04/26 02:43:18;;;;;;;;;;;22.00;33.70;;;;;;1585184;73;780;-67
2021/04/26 02:45:20;;;;;;;;;;;22.00;33.90;;;;;;1593052;73;695;-67
2021/04/26 02:47:22;;;;;;;;;;;21.80;33.90;;;;;;1586886;72;785;-66
2021/04/26 02:49:24;;;;;;;;;;;21.90;34.10;;;;;;1591227;73;1941;-68
2021/04/26 02:51:28;;;;;;;;;;;21.80;34.00;;;;;;1595006;73;754;-66
2021/04/26 02:53:30;;;;;;;;;;;21.90;34.20;;;;;;1584620;73;698;-66
2021/04/26 02:55:32;;;;;;;;;;;21.90;34.20;;;;;;1593240;73;760;-69
2021/04/26 02:57:34;;;;;;;;;;;21.80;34.30;;;;;;1577668;73;844;-66
2021/04/26 02:59:37;;;;;;;;;;;21.90;34.50;;;;;;1580313;73;1144;-69
2021/04/26 03:01:41;;;;;;;;;;;21.90;34.50;;;;;;1577729;73;1184;-70
2021/04/26 03:03:43;;;;;;;;;;;21.80;34.60;;;;;;1559860;74;804;-66
2021/04/26 03:05:45;;;;;;;;;;;21.80;34.70;;;;;;1594376;73;785;-69
2021/04/26 03:07:47;;;;;;;;;;;21.80;34.80;;;;;;1598499;73;1953;-67
2021/04/26 03:09:49;;;;;;;;;;;21.80;34.90;;;;;;1585238;72;1124;-72
2021/04/26 03:11:52;;;;;;;;;;;21.80;35.00;;;;;;1578776;73;731;-70
2021/04/26 03:13:54;;;;;;;;;;;21.70;35.10;;;;;;1585261;73;783;-70
2021/04/26 03:15:56;;;;;;;;;;;21.80;35.20;;;;;;1582544;73;721;-72
2021/04/26 03:17:59;;;;;;;;;;;21.70;35.10;;;;;;1581540;73;767;-69
2021/04/26 03:20:02;;;;;;;;;;;21.70;35.20;;;;;;1585372;73;1501;-68
2021/04/26 03:22:03;;;;;;;;;;;21.70;35.20;;;;;;1593388;73;776;-70
2021/04/26 03:24:05;;;;;;;;;;;21.70;35.30;;;;;;1588717;72;732;-69
2021/04/26 03:26:07;;;;;;;;;;;21.70;35.40;;;;;;1547929;74;723;-68
2021/04/26 03:28:09;;;;;;;;;;;21.70;35.50;;;;;;1587556;73;1930;-69
2021/04/26 03:30:12;;;;;;;;;;;21.70;35.40;;;;;;1568398;73;1227;-69
2021/04/26 03:32:14;;;;;;;;;;;21.70;35.40;;;;;;1578472;73;744;-67
2021/04/26 03:34:16;;;;;;;;;;;21.70;35.30;;;;;;1574197;73;706;-66
2021/04/26 03:36:18;;;;;;;;;;;21.70;35.20;;;;;;1594088;73;759;-67
2021/04/26 03:38:20;;;;;;;;;;;21.70;35.20;;;;;;1580040;73;732;-69
2021/04/26 03:40:23;;;;;;;;;;;21.70;35.40;;;;;;1581631;72;1123;-70
2021/04/26 03:42:26;;;;;;;;;;;21.70;35.30;;;;;;1582663;73;802;-69
2021/04/26 03:44:28;;;;;;;;;;;21.70;35.40;;;;;;1583889;72;778;-69
2021/04/26 03:46:30;;;;;;;;;;;21.70;35.30;;;;;;1586499;73;671;-69
2021/04/26 03:48:31;;;;;;;;;;;21.70;35.30;;;;;;1611090;73;1940;-69
2021/04/26 03:50:33;;;;;;;;;;;21.70;35.20;;;;;;1594576;73;796;-68
2021/04/26 03:52:35;;;;;;;;;;;21.70;35.40;;;;;;1603695;73;741;-69
2021/04/26 03:54:37;;;;;;;;;;;21.70;35.30;;;;;;1587413;73;680;-67
2021/04/26 03:56:39;;;;;;;;;;;21.70;35.30;;;;;;1591904;73;760;-68
2021/04/26 03:58:41;;;;;;;;;;;21.70;35.40;;;;;;1586180;73;1133;-69
2021/04/26 04:00:43;;;;;;;;;;;21.70;35.40;;;;;;1586183;73;874;-65
2021/04/26 04:02:46;;;;;;;;;;;21.70;35.40;;;;;;1595981;73;740;-68
2021/04/26 04:04:48;;;;;;;;;;;21.70;35.60;;;;;;1577290;73;846;-67
2021/04/26 04:06:50;;;;;;;;;;;21.70;35.50;;;;;;1576341;73;788;-67
2021/04/26 04:08:52;;;;;;;;;;;21.70;35.70;;;;;;1574274;73;1928;-67
2021/04/26 04:10:54;;;;;;;;;;;21.70;35.70;;;;;;1590379;73;753;-67
2021/04/26 04:12:55;;;;;;;;;;;21.70;35.60;;;;;;1589662;73;675;-66
2021/04/26 04:14:57;;;;;;;;;;;21.70;35.60;;;;;;1596233;73;806;-69
2021/04/26 04:16:59;;;;;;;;;;;21.60;35.50;;;;;;1587925;73;852;-69
2021/04/26 04:19:01;;;;;;;;;;;21.70;35.50;;;;;;1590194;73;1132;-69
2021/04/26 04:21:03;;;;;;;;;;;21.70;35.50;;;;;;1594951;73;717;-67
2021/04/26 04:23:05;;;;;;;;;;;21.70;35.40;;;;;;1597765;73;787;-69
2021/04/26 04:25:07;;;;;;;;;;;21.70;35.50;;;;;;1585904;73;806;-69
2021/04/26 04:27:09;;;;;;;;;;;21.70;35.40;;;;;;1590596;73;762;-70
2021/04/26 04:29:11;;;;;;;;;;;21.70;35.20;;;;;;1595968;73;1930;-70
2021/04/26 04:31:13;;;;;;;;;;;21.80;35.20;;;;;;1586960;73;699;-71
2021/04/26 04:33:15;;;;;;;;;;;21.80;35.00;;;;;;1589947;72;801;-71
2021/04/26 04:35:17;;;;;;;;;;;21.90;35.10;;;;;;1591999;72;790;-70
2021/04/26 04:37:19;;;;;;;;;;;21.80;35.00;;;;;;1595759;72;800;-70
2021/04/26 04:39:21;;;;;;;;;;;21.80;35.00;;;;;;1589680;73;1178;-72
2021/04/26 04:41:23;;;;;;;;;;;21.70;35.10;;;;;;1591308;73;759;-70
2021/04/26 04:43:24;;;;;;;;;;;21.80;35.00;;;;;;1582793;72;800;-71
2021/04/26 04:45:26;;;;;;;;;;;21.80;35.00;;;;;;1587124;72;769;-70
2021/04/26 04:47:28;;;;;;;;;;;21.80;34.90;;;;;;1611476;73;745;-69
2021/04/26 04:49:30;;;;;;;;;;;21.80;34.90;;;;;;1584828;73;1945;-71
2021/04/26 04:51:32;;;;;;;;;;;21.80;34.90;;;;;;1598759;73;706;-69
2021/04/26 04:53:34;;;;;;;;;;;21.80;34.90;;;;;;1592937;72;792;-70
2021/04/26 04:55:36;;;;;;;;;;;21.70;35.00;;;;;;1596362;72;757;-67
2021/04/26 04:57:37;;;;;;;;;;;21.70;35.00;;;;;;1586308;73;762;-68
2021/04/26 04:59:39;;;;;;;;;;;21.70;35.00;;;;;;1597114;73;1159;-68
2021/04/26 05:01:41;;;;;;;;;;;21.70;35.20;;;;;;1585689;73;687;-66
2021/04/26 05:03:43;;;;;;;;;;;21.70;35.40;;;;;;1578859;73;638;-68
2021/04/26 05:05:45;;;;;;;;;;;21.70;35.40;;;;;;1582089;73;779;-69
2021/04/26 05:07:47;;;;;;;;;;;21.60;35.50;;;;;;1583448;73;678;-69
2021/04/26 05:09:49;;;;;;;;;;;21.70;35.50;;;;;;1585255;73;1936;-71
2021/04/26 05:11:51;;;;;;;;;;;21.70;35.50;;;;;;1578636;73;785;-68
2021/04/26 05:13:52;;;;;;;;;;;21.60;35.50;;;;;;1580401;73;803;-68
2021/04/26 05:15:55;;;;;;;;;;;21.60;35.60;;;;;;1582266;72;785;-67
2021/04/26 05:17:56;;;;;;;;;;;21.60;35.70;;;;;;1583203;73;815;-69
2021/04/26 05:19:59;;;;;;;;;;;21.60;35.80;;;;;;1590079;72;1125;-69
2021/04/26 05:22:01;;;;;;;;;;;21.70;35.80;;;;;;1580188;73;872;-69
2021/04/26 05:24:04;;;;;;;;;;;21.60;35.70;;;;;;1579306;73;783;-67
2021/04/26 05:26:05;;;;;;;;;;;21.60;35.70;;;;;;1576174;73;792;-67
2021/04/26 05:28:07;;;;;;;;;;;21.60;35.80;;;;;;1581307;72;834;-69
2021/04/26 05:30:10;;;;;;;;;;;21.70;36.20;;;;;;1582997;72;1948;-72
2021/04/26 05:32:11;;;;;;;;;;;21.70;35.70;;;;;;1587621;73;792;-70
2021/04/26 05:34:13;;;;;;;;;;;21.70;35.50;;;;;;1601084;73;769;-72
2021/04/26 05:36:15;;;;;;;;;;;21.80;35.00;;;;;;1600773;73;798;-67
2021/04/26 05:38:17;;;;;;;;;;;21.80;34.80;;;;;;1592107;73;770;-68
2021/04/26 05:40:19;;;;;;;;;;;21.90;34.50;;;;;;1589648;73;1109;-71
2021/04/26 05:42:21;;;;;;;;;;;21.90;34.20;;;;;;1594516;73;803;-70
2021/04/26 05:44:23;;;;;;;;;;;22.00;34.10;;;;;;1595560;73;658;-73
2021/04/26 05:46:26;;;;;;;;;;;22.00;33.90;;;;;;1582358;72;721;-75
2021/04/26 05:48:28;;;;;;;;;;;21.90;33.70;;;;;;1579618;73;1169;-70
2021/04/26 05:50:30;;;;;;;;;;;21.80;33.70;;;;;;1579250;73;1941;-72
2021/04/26 05:52:32;;;;;;;;;;;21.90;33.50;;;;;;1579100;73;724;-72
2021/04/26 05:54:34;;;;;;;;;;;21.70;33.50;;;;;;1584191;73;722;-71
2021/04/26 05:56:36;;;;;;;;;;;21.80;33.80;;;;;;1586471;73;787;-74
2021/04/26 05:58:37;;;;;;;;;;;21.80;33.70;;;;;;1575901;73;1148;-73
2021/04/26 06:00:39;;;;;;;;;;;21.80;33.80;;;;;;1580467;73;718;-71
2021/04/26 06:02:41;;;;;;;;;;;21.80;33.80;;;;;;1584411;73;740;-69
2021/04/26 06:04:43;;;;;;;;;;;21.80;34.10;;;;;;1597627;73;753;-69
2021/04/26 06:06:45;;;;;;;;;;;21.80;34.30;;;;;;1581190;72;733;-71
2021/04/26 06:08:47;;;;;;;;;;;21.80;34.20;;;;;;1591831;73;1950;-72
2021/04/26 06:10:49;;;;;;;;;;;21.80;34.00;;;;;;1584735;73;594;-71
2021/04/26 06:12:50;;;;;;;;;;;21.80;33.90;;;;;;1615398;73;718;-71
2021/04/26 06:14:52;;;;;;;;;;;21.80;33.80;;;;;;1596658;72;753;-73
2021/04/26 06:16:54;;;;;;;;;;;21.80;33.60;;;;;;1580618;73;704;-72
2021/04/26 06:18:56;;;;;;;;;;;21.80;33.40;;;;;;1577435;73;1126;-72
2021/04/26 06:20:58;;;;;;;;;;;21.80;33.20;;;;;;1581864;73;734;-72
2021/04/26 06:23:00;;;;;;;;;;;21.80;33.00;;;;;;1594174;73;782;-68
2021/04/26 06:25:02;;;;;;;;;;;21.70;32.70;;;;;;1588166;73;711;-70
2021/04/26 06:27:04;;;;;;;;;;;21.80;32.90;;;;;;1597536;72;805;-69
2021/04/26 06:29:06;;;;;;;;;;;21.80;33.00;;;;;;1575830;73;1958;-72
2021/04/26 06:31:08;;;;;;;;;;;21.80;33.10;;;;;;1591337;73;842;-72
2021/04/26 06:33:14;;;;;;;;;;;21.80;33.00;;;;;;1598431;73;685;-71
2021/04/26 06:35:13;;;;;;;;;;;21.90;33.00;;;;;;1594335;73;1635;-72
2021/04/26 06:37:15;;;;;;;;;;;22.00;32.80;;;;;;1592340;73;791;-71
2021/04/26 06:39:17;;;;;;;;;;;21.90;32.70;;;;;;1593900;73;1215;-73
2021/04/26 06:41:19;;;;;;;;;;;22.00;32.40;;;;;;1596386;73;771;-72
2021/04/26 06:43:21;;;;;;;;;;;22.00;32.40;;;;;;1590586;73;751;-74
2021/04/26 06:45:23;;;;;;;;;;;22.00;32.40;;;;;;1603181;72;796;-75
2021/04/26 06:47:25;;;;;;;;;;;21.90;32.30;;;;;;1608445;72;783;-72
2021/04/26 06:49:27;;;;;;;;;;;21.90;32.40;;;;;;1590944;73;1961;-75
2021/04/26 06:51:29;;;;;;;;;;;21.90;32.40;;;;;;1594637;73;794;-74
2021/04/26 06:53:30;;;;;;;;;;;21.90;32.30;;;;;;1616896;72;796;-72
2021/04/26 06:55:32;;;;;;;;;;;21.80;32.10;;;;;;1579911;73;806;-72
2021/04/26 06:57:34;;;;;;;;;;;21.80;32.10;;;;;;1591057;72;807;-68
2021/04/26 06:59:36;;;;;;;;;;;21.80;32.30;;;;;;1595610;72;1128;-71
2021/04/26 07:01:38;;;;;;;;;;;21.70;32.40;;;;;;1596275;74;901;-68
2021/04/26 07:03:40;;;;;;;;;;;21.70;32.50;;;;;;1589851;73;700;-70
2021/04/26 07:05:42;;;;;;;;;;;21.70;32.50;;;;;;1584573;72;765;-72
2021/04/26 07:07:43;;;;;;;;;;;21.70;32.70;;;;;;1605625;73;746;-73
2021/04/26 07:09:46;;;;;;;;;;;21.70;32.90;;;;;;1595079;72;1941;-71
2021/04/26 07:11:49;;;;;;;;;;;21.80;33.00;;;;;;1598910;73;682;-61
2021/04/26 07:13:51;;;;;;;;;;;21.80;32.30;;;;;;1598002;73;722;-66
2021/04/26 07:15:53;;;;;;;;;;;22.00;29.70;;;;;;1583749;73;650;-65
2021/04/26 07:17:55;;;;;;;;;;;22.10;29.30;;;;;;1582018;73;780;-66
2021/04/26 07:19:56;;;;;;;;;;;22.10;27.40;;;;;;1576403;73;1139;-65
2021/04/26 07:21:58;;;;;;;;;;;21.90;26.50;;;;;;1585479;73;732;-65
2021/04/26 07:24:00;;;;;;;;;;;21.70;26.00;;;;;;1575947;73;775;-64
2021/04/26 07:26:02;;;;;;;;;;;21.60;26.50;;;;;;1576926;73;790;-64
2021/04/26 07:28:05;;;;;;;;;;;21.60;26.50;;;;;;1578006;73;754;-64
2021/04/26 07:30:07;;;;;;;;;;;21.60;26.50;;;;;;1579781;72;1946;-65
2021/04/26 07:32:09;;;;;;;;;;;21.60;26.30;;;;;;1577234;73;709;-65
2021/04/26 07:34:11;;;;;;;;;;;21.60;26.10;;;;;;1579195;73;812;-65
2021/04/26 07:36:13;;;;;;;;;;;21.60;26.20;;;;;;1574773;72;728;-65
2021/04/26 07:38:14;;;;;;;;;;;21.40;24.90;;;;;;1586669;73;790;-65
2021/04/26 07:40:16;;;;;;;;;;;21.20;24.70;;;;;;1578853;72;215506;-57
2021/04/26 07:42:18;;;;;;;;;;;21.10;25.10;;;;;;1576477;74;834;-56
2021/04/26 07:44:20;;;;;;;;;;;21.00;25.20;;;;;;1582073;74;793;-55
2021/04/26 07:46:22;;;;;;;;;;;21.10;25.60;;;;;;1592201;74;836;-59
2021/04/26 07:48:24;;;;;;;;;;;21.20;25.60;;;;;;1590381;74;808;-58
2021/04/26 07:50:26;;;;;;;;;;;21.40;25.50;;;;;;1572029;74;1961;-55
2021/04/26 07:52:28;;;;;;;;;;;21.40;24.80;;;;;;1570305;74;740;-56
2021/04/26 07:54:29;;;;;;;;;;;21.30;23.80;;;;;;1567242;75;816;-58
2021/04/26 07:56:32;;;;;;;;;;;21.00;24.60;;;;;;1563399;75;744;-56
2021/04/26 07:58:34;;;;;;;;;;;21.00;25.40;;;;;;1562669;75;695;-55
2021/04/26 08:00:35;;;;;;;;;;;21.10;24.90;;;;;;1567673;75;1080;-56
2021/04/26 08:02:37;;;;;;;;;;;21.20;24.80;;;;;;1572015;74;732;-56
2021/04/26 08:04:39;;;;;;;;;;;21.30;25.40;;;;;;1573156;75;775;-60
2021/04/26 08:06:41;;;;;;;;;;;21.50;24.70;;;;;;1571765;75;717;-60
2021/04/26 08:08:43;;;;;;;;;;;21.40;24.00;;;;;;1570078;75;733;-59
2021/04/26 08:10:45;;;;;;;;;;;21.40;24.40;;;;;;1565733;75;1939;-59
2021/04/26 08:12:47;;;;;;;;;;;21.20;24.10;;;;;;1562307;74;688;-59
2021/04/26 08:14:49;;;;;;;;;;;21.20;24.40;;;;;;1565114;74;759;-56
2021/04/26 08:16:51;;;;;;;;;;;21.30;24.70;;;;;;1569417;75;705;-58
2021/04/26 08:18:53;;;;;;;;;;;21.40;25.10;;;;;;1570232;75;1120;-56
2021/04/26 08:20:55;;;;;;;;;;;21.60;24.90;;;;;;1571007;75;703;-55
2021/04/26 08:22:57;;;;;;;;;;;21.70;24.70;;;;;;1574546;74;665;-58
2021/04/26 08:24:59;;;;;;;;;;;21.80;24.90;;;;;;1575188;75;829;-55
2021/04/26 08:27:01;;;;;;;;;;;21.80;24.60;;;;;;1571455;75;826;-56
2021/04/26 08:29:02;;;;;;;;;;;21.90;24.70;;;;;;1568905;75;1070;-59
2021/04/26 08:31:07;;;;;;;;;;;22.00;24.50;;;;;;1567942;74;1930;-58
2021/04/26 08:33:09;;;;;;;;;;;21.90;24.70;;;;;;1566124;75;756;-55
2021/04/26 08:35:11;;;;;;;;;;;22.00;25.00;;;;;;1571849;75;778;-57
2021/04/26 08:37:13;;;;;;;;;;;22.10;24.90;;;;;;1573272;75;844;-56
2021/04/26 08:39:17;;;;;;;;;;;22.00;24.20;;;;;;1567594;74;1094;-56
2021/04/26 08:41:18;;;;;;;;;;;22.00;24.50;;;;;;1571575;74;735;-58
2021/04/26 08:43:20;;;;;;;;;;;22.00;24.00;;;;;;1557764;75;755;-55
2021/04/26 08:45:22;;;;;;;;;;;22.00;23.90;;;;;;1569278;75;732;-59
2021/04/26 08:47:25;;;;;;;;;;;22.00;23.90;;;;;;1565810;75;863;-56
2021/04/26 08:49:27;;;;;;;;;;;21.90;23.90;;;;;;1571062;74;1237;-56
2021/04/26 08:51:30;;;;;;;;;;;22.00;23.90;;;;;;1568463;75;1940;-59
2021/04/26 08:53:33;;;;;;;;;;;21.90;23.80;;;;;;1570206;75;698;-55
2021/04/26 08:55:34;;;;;;;;;;;21.90;22.80;;;;;;1566504;75;832;-55
2021/04/26 08:57:36;;;;;;;;;;;21.90;23.60;;;;;;1567695;74;726;-57
2021/04/26 08:59:42;;;;;;;;;;;21.90;23.50;;;;;;1572255;74;1204;-57
2021/04/26 09:01:43;;;;;;;;;;;22.00;23.40;;;;;;1568233;75;978;-58
2021/04/26 09:03:46;;;;;;;;;;;21.90;23.40;;;;;;1568813;75;1399;-57
2021/04/26 09:05:48;;;;;;;;;;;22.00;23.60;;;;;;1568252;75;695;-58
2021/04/26 09:07:50;;;;;;;;;;;21.90;23.00;;;;;;1569331;75;1133;-57
2021/04/26 09:09:53;;;;;;;;;;;22.00;23.50;;;;;;1572822;74;1951;-59
2021/04/26 09:11:55;;;;;;;;;;;21.90;23.40;;;;;;1570506;75;905;-60
2021/04/26 09:13:57;;;;;;;;;;;21.90;23.00;;;;;;1566265;75;942;-59
2021/04/26 09:16:00;;;;;;;;;;;21.90;22.90;;;;;;1567531;75;751;-60
2021/04/26 09:18:02;;;;;;;;;;;21.90;23.10;;;;;;1571568;74;749;-57
2021/04/26 09:20:17;;;;;;;;;;;21.90;23.10;;;;;;1569123;75;1106;-57
2021/04/26 09:22:38;;;;;;;;;;;21.90;23.00;;;;;;1568546;75;728;-60
2021/04/26 09:24:40;;;;;;;;;;;21.90;22.90;;;;;;1572321;75;770;-57
2021/04/26 09:26:42;;;;;;;;;;;21.80;22.90;;;;;;1571226;75;748;-56
2021/04/26 09:28:45;;;;;;;;;;;21.80;23.00;;;;;;1570806;74;775;-61
2021/04/26 09:30:48;;;;;;;;;;;21.70;23.00;;;;;;1570104;75;1931;-57
2021/04/26 09:32:50;;;;;;;;;;;21.70;23.70;;;;;;1570587;75;797;-58
2021/04/26 09:34:55;;;;;;;;;;;21.70;22.80;;;;;;1569185;75;800;-58
2021/04/26 09:36:58;;;;;;;;;;;21.80;23.40;;;;;;1571951;74;723;-58
2021/04/26 09:39:04;;;;;;;;;;;21.80;22.90;;;;;;1566465;75;1795;-56
2021/04/26 09:41:22;;;;;;;;;;;21.90;23.70;;;;;;1574977;74;1670;-58
2021/04/26 09:43:24;;;;;;;;;;;21.90;23.10;;;;;;1568681;75;816;-55
2021/04/26 09:45:32;;;;;;;;;;;21.80;23.20;;;;;;1566012;75;816;-55
2021/04/26 09:47:34;;;;;;;;;;;21.80;23.20;;;;;;1570930;75;2254;-55
2021/04/26 09:49:35;;;;;;;;;;;21.90;23.10;;;;;;1567999;74;1126;-58
2021/04/26 09:51:37;;;;;;;;;;;21.90;23.40;;;;;;1572098;75;1931;-58
2021/04/26 09:53:41;;;;;;;;;;;21.90;23.80;;;;;;1569488;75;895;-58
2021/04/26 09:55:43;;;;;;;;;;;21.90;23.10;;;;;;1567123;75;825;-58
2021/04/26 09:57:45;;;;;;;;;;;21.90;23.00;;;;;;1571783;75;806;-57
2021/04/26 09:59:48;;;;;;;;;;;21.90;22.90;;;;;;1573093;74;1126;-56
2021/04/26 10:01:50;;;;;;;;;;;21.80;23.10;;;;;;1570454;75;2058;-56
2021/04/26 10:03:52;;;;;;;;;;;21.80;23.10;;;;;;1565675;75;759;-57
2021/04/26 10:05:54;;;;;;;;;;;21.90;23.80;;;;;;1567760;75;902;-56
2021/04/26 10:07:56;;;;;;;;;;;21.80;22.80;;;;;;1568763;75;791;-60
2021/04/26 10:09:58;;;;;;;;;;;21.90;23.40;;;;;;1570127;74;1131;-58
2021/04/26 10:12:00;;;;;;;;;;;21.90;24.00;;;;;;1570075;75;1960;-57
2021/04/26 10:14:04;;;;;;;;;;;21.60;21.80;;;;;;1569491;74;764;-56
2021/04/26 10:16:06;;;;;;;;;;;21.40;22.20;;;;;;1572569;75;770;-55
2021/04/26 10:18:09;;;;;;;;;;;21.50;23.80;;;;;;1566904;75;800;-54
2021/04/26 10:20:12;;;;;;;;;;;21.60;24.00;;;;;;1573327;75;1113;-57
2021/04/26 10:22:13;;;;;;;;;;;21.70;24.40;;;;;;1570166;75;835;-56
2021/04/26 10:24:16;;;;;;;;;;;21.80;24.70;;;;;;1571866;75;811;-56
2021/04/26 10:26:36;;;;;;;;;;;21.90;25.10;;;;;;1570244;75;759;-56
2021/04/26 10:28:38;;;;;;;;;;;21.90;25.30;;;;;;1569291;75;765;-57
2021/04/26 10:30:56;;;;;;;;;;;22.00;25.70;;;;;;1563446;74;1943;-56
2021/04/26 10:32:58;;;;;;;;;;;22.00;26.20;;;;;;1573917;74;720;-58
2021/04/26 10:35:02;;;;;;;;;;;21.90;26.50;;;;;;1573162;75;1002;-58
2021/04/26 10:37:05;;;;;;;;;;;21.90;27.00;;;;;;1557642;75;740;-60
2021/04/26 10:39:08;;;;;;;;;;;21.90;27.10;;;;;;1557114;75;1677;-56
2021/04/26 10:41:14;;;;;;;;;;;21.90;27.10;;;;;;1564906;74;784;-59
2021/04/26 10:43:28;;;;;;;;;;;22.00;27.20;;;;;;1564002;75;786;-55
2021/04/26 10:45:31;;;;;;;;;;;21.90;27.10;;;;;;1574449;75;756;-60
2021/04/26 10:47:34;;;;;;;;;;;22.00;26.80;;;;;;1569804;75;828;-60
2021/04/26 10:49:36;;;;;;;;;;;22.00;26.80;;;;;;1562641;75;1170;-59
2021/04/26 10:51:38;;;;;;;;;;;22.00;27.10;;;;;;1564845;75;1946;-57
2021/04/26 10:53:46;;;;;;;;;;;22.00;27.30;;;;;;1570453;75;747;-59
2021/04/26 10:55:48;;;;;;;;;;;22.00;27.30;;;;;;1561532;75;821;-58
2021/04/26 10:57:51;;;;;;;;;;;22.00;27.20;;;;;;1559654;75;910;-58
2021/04/26 10:59:53;;;;;;;;;;;22.00;27.10;;;;;;1570757;75;1105;-58
2021/04/26 11:01:55;;;;;;;;;;;22.10;27.30;;;;;;1562128;75;709;-58
2021/04/26 11:03:58;;;;;;;;;;;22.00;27.40;;;;;;1571270;75;696;-59
2021/04/26 11:06:10;;;;;;;;;;;22.10;27.40;;;;;;1571419;75;1817;-58
2021/04/26 11:10:47;;;;;;;;;;;22.20;27.50;;;;;;1559202;74;1925;-59
2021/04/26 11:12:43;;;;;;;;;;;22.10;27.30;;;;;;1565008;75;1635;-58
2021/04/26 11:14:46;;;;;;;;;;;22.10;27.50;;;;;;1572304;75;818;-59
2021/04/26 11:16:55;;;;;;;;;;;22.10;27.50;;;;;;1562309;75;809;-59
2021/04/26 11:19:03;;;;;;;;;;;22.00;27.40;;;;;;1571021;75;1137;-58
2021/04/26 11:21:05;;;;;;;;;;;22.00;27.50;;;;;;1566227;74;780;-61
2021/04/26 11:23:06;;;;;;;;;;;22.00;27.40;;;;;;1571698;75;717;-62
2021/04/26 11:25:09;;;;;;;;;;;22.10;27.30;;;;;;1573132;75;737;-60
2021/04/26 11:27:13;;;;;;;;;;;22.10;27.70;;;;;;1564633;75;766;-59
2021/04/26 11:29:16;;;;;;;;;;;22.10;27.70;;;;;;1571730;74;1125;-58
2021/04/26 11:31:18;;;;;;;;;;;22.20;30.40;;;;;;1572362;75;1924;-60
2021/04/26 11:33:20;;;;;;;;;;;22.10;30.20;;;;;;1564865;75;795;-61
2021/04/26 11:35:22;;;;;;;;;;;22.10;30.00;;;;;;1572964;75;710;-58
2021/04/26 11:37:24;;;;;;;;;;;22.20;26.10;;;;;;1573425;74;829;-59
2021/04/26 11:39:27;;;;;;;;;;;21.60;22.60;;;;;;1558502;75;1131;-59
2021/04/26 11:41:42;;;;;;;;;;;21.20;22.20;;;;;;1560380;75;2015;-59
2021/04/26 11:43:44;;;;;;;;;;;20.90;23.10;;;;;;1560322;74;807;-59
2021/04/26 11:45:46;;;;;;;;;;;20.70;21.80;;;;;;1560481;75;748;-59
2021/04/26 11:47:49;;;;;;;;;;;20.50;22.30;;;;;;1566999;74;729;-58
2021/04/26 11:49:52;;;;;;;;;;;20.60;23.80;;;;;;1562280;75;1152;-59
2021/04/26 11:51:54;;;;;;;;;;;20.70;23.80;;;;;;1555580;75;1944;-60
2021/04/26 11:53:58;;;;;;;;;;;20.60;22.10;;;;;;1572219;75;846;-58
2021/04/26 11:56:01;;;;;;;;;;;20.50;22.20;;;;;;1565568;74;1932;-58
2021/04/26 11:58:03;;;;;;;;;;;20.40;20.30;;;;;;1558188;75;1633;-58
2021/04/26 12:00:10;;;;;;;;;;;20.10;21.20;;;;;;1565143;75;1140;-59
2021/04/26 12:02:11;;;;;;;;;;;20.00;20.00;;;;;;1567606;75;1088;-56
2021/04/26 12:04:13;;;;;;;;;;;19.90;21.10;;;;;;1528415;77;838;-58
2021/04/26 12:06:15;;;;;;;;;;;19.70;21.30;;;;;;1571542;74;762;-58
2021/04/26 12:08:17;;;;;;;;;;;19.70;21.50;;;;;;1578440;74;795;-59
2021/04/26 12:10:20;;;;;;;;;;;19.70;21.80;;;;;;1576184;74;1096;-58
2021/04/26 12:12:23;;;;;;;;;;;19.80;22.80;;;;;;1576361;75;1903;-61
2021/04/26 12:14:25;;;;;;;;;;;19.90;22.60;;;;;;1578540;75;715;-55